Time;durP1;ratioP1;P1;durP2;ratioP2;P2;SDS_P1;SDS_P2;PMS_P1;PMS_P2;Temp;Humidity;BMP_temperature;BMP_pressure;BME280_temperature;BME280_humidity;BME280_pressure;Samples;Min_cycle;Max_cycle;Signal;HPM_P1;HPM_P2
2023/09/01 00:02:15;;;;;;;11.30;6.10;;;;;;;;;;7368707;19;20131;-73
2023/09/01 00:04:40;;;;;;;7.82;5.72;;;;;;;;;;7388716;19;20026;-72
2023/09/01 00:07:06;;;;;;;8.68;6.07;;;;;;;;;;7369141;19;20016;-74
2023/09/01 00:09:31;;;;;;;9.68;6.43;;;;;;;;;;7368305;19;20086;-73
2023/09/01 00:11:56;;;;;;;9.85;5.53;;;;;;;;;;7369650;19;20041;-73
2023/09/01 00:14:22;;;;;;;9.02;5.93;;;;;;;;;;7368462;19;20477;-72
2023/09/01 00:16:47;;;;;;;12.27;6.28;;;;;;;;;;7390228;19;20002;-71
2023/09/01 00:19:12;;;;;;;11.05;6.38;;;;;;;;;;7369023;19;20074;-71
2023/09/01 00:21:39;;;;;;;10.35;6.55;;;;;;;;;;7367223;19;20010;-71
2023/09/01 00:24:05;;;;;;;14.23;7.07;;;;;;;;;;7367746;19;20034;-71
2023/09/01 00:26:30;;;;;;;10.25;6.70;;;;;;;;;;7367305;19;20003;-72
2023/09/01 00:28:56;;;;;;;9.95;6.82;;;;;;;;;;7368384;19;20456;-72
2023/09/01 00:31:21;;;;;;;12.13;6.68;;;;;;;;;;7389092;19;20006;-73
2023/09/01 00:33:46;;;;;;;9.30;6.63;;;;;;;;;;7366415;19;20006;-72
2023/09/01 00:36:12;;;;;;;11.95;6.63;;;;;;;;;;7365975;19;20021;-72
2023/09/01 00:38:37;;;;;;;10.30;6.57;;;;;;;;;;7367345;19;20014;-72
2023/09/01 00:41:02;;;;;;;14.38;6.75;;;;;;;;;;7367722;19;20016;-72
2023/09/01 00:43:28;;;;;;;11.65;6.85;;;;;;;;;;7389260;19;20027;-72
2023/09/01 00:45:53;;;;;;;14.60;7.65;;;;;;;;;;7366214;19;20006;-72
2023/09/01 00:48:19;;;;;;;13.32;6.95;;;;;;;;;;7367278;19;19998;-72
2023/09/01 00:50:48;;;;;;;13.20;7.72;;;;;;;;;;7366912;19;20034;-72
2023/09/01 00:53:13;;;;;;;12.52;7.45;;;;;;;;;;7367237;19;20011;-72
2023/09/01 00:55:39;;;;;;;11.25;6.97;;;;;;;;;;7386739;19;19998;-71
2023/09/01 00:58:05;;;;;;;11.80;7.53;;;;;;;;;;7367056;19;20048;-71
2023/09/01 01:00:32;;;;;;;13.43;6.97;;;;;;;;;;7366356;19;20375;-71
2023/09/01 01:02:59;;;;;;;11.73;7.32;;;;;;;;;;7366520;19;20007;-71
2023/09/01 01:05:33;;;;;;;11.35;7.38;;;;;;;;;;7362964;19;20006;-72
2023/09/01 01:08:14;;;;;;;10.70;7.55;;;;;;;;;;7369648;19;20035;-71
2023/09/01 01:10:52;;;;;;;12.90;6.93;;;;;;;;;;7389199;19;20416;-71
2023/09/01 01:13:21;;;;;;;9.00;6.57;;;;;;;;;;7367359;19;20035;-71
2023/09/01 01:15:49;;;;;;;9.35;6.60;;;;;;;;;;7365673;19;20002;-71
2023/09/01 01:18:16;;;;;;;10.05;6.63;;;;;;;;;;7366729;19;20173;-71
2023/09/01 01:20:52;;;;;;;7.70;5.55;;;;;;;;;;7368527;19;20003;-72
2023/09/01 01:23:19;;;;;;;9.00;5.88;;;;;;;;;;7369546;19;20121;-71
2023/09/01 01:25:52;;;;;;;10.68;6.22;;;;;;;;;;7386344;19;20514;-71
2023/09/01 01:28:19;;;;;;;9.85;5.80;;;;;;;;;;7367658;19;20010;-71
2023/09/01 01:30:46;;;;;;;7.63;5.22;;;;;;;;;;7366389;19;20058;-71
2023/09/01 01:33:36;;;;;;;8.48;5.50;;;;;;;;;;7367154;19;20528;-70
2023/09/01 01:36:18;;;;;;;10.40;5.82;;;;;;;;;;7364925;19;20074;-71
2023/09/01 01:38:48;;;;;;;9.88;5.53;;;;;;;;;;7367449;19;20035;-71
2023/09/01 01:41:33;;;;;;;8.53;5.40;;;;;;;;;;7367211;19;20010;-72
2023/09/01 01:44:00;;;;;;;9.45;6.10;;;;;;;;;;7365542;19;20102;-71
2023/09/01 01:46:26;;;;;;;9.52;6.25;;;;;;;;;;7387680;19;20020;-71
2023/09/01 01:48:52;;;;;;;9.07;5.13;;;;;;;;;;7365919;19;20027;-71
2023/09/01 01:51:17;;;;;;;8.30;4.97;;;;;;;;;;7365693;19;20006;-71
2023/09/01 01:53:42;;;;;;;8.23;5.40;;;;;;;;;;7365878;19;20126;-71
2023/09/01 01:56:08;;;;;;;7.50;4.85;;;;;;;;;;7365875;19;20007;-73
2023/09/01 01:58:33;;;;;;;8.50;5.57;;;;;;;;;;7388158;19;19999;-72
2023/09/01 02:01:03;;;;;;;9.10;5.38;;;;;;;;;;7366005;19;20036;-72
2023/09/01 02:03:29;;;;;;;7.93;4.95;;;;;;;;;;7364913;19;20003;-71
2023/09/01 02:05:54;;;;;;;7.05;5.18;;;;;;;;;;7364865;19;20010;-71
2023/09/01 02:08:19;;;;;;;6.82;4.72;;;;;;;;;;7365405;19;20496;-72
2023/09/01 02:10:47;;;;;;;7.32;5.15;;;;;;;;;;7387838;19;20880;-71
2023/09/01 02:13:12;;;;;;;7.20;4.57;;;;;;;;;;7366189;19;20002;-72
2023/09/01 02:15:38;;;;;;;7.25;4.75;;;;;;;;;;7362675;19;20338;-71
2023/09/01 02:18:08;;;;;;;10.57;4.70;;;;;;;;;;7371775;19;20047;-71
2023/09/01 02:20:37;;;;;;;6.38;4.15;;;;;;;;;;7371979;19;20006;-71
2023/09/01 02:23:02;;;;;;;7.55;4.65;;;;;;;;;;7373198;19;20082;-71
2023/09/01 02:25:27;;;;;;;9.65;5.10;;;;;;;;;;7391264;19;20563;-71
2023/09/01 02:27:53;;;;;;;9.38;4.60;;;;;;;;;;7372176;19;20017;-71
2023/09/01 02:30:18;;;;;;;8.82;4.97;;;;;;;;;;7371337;19;20016;-71
2023/09/01 02:32:43;;;;;;;7.32;5.00;;;;;;;;;;7372599;19;20026;-71
2023/09/01 02:35:09;;;;;;;8.88;4.63;;;;;;;;;;7370023;19;20074;-71
2023/09/01 02:37:35;;;;;;;6.93;4.70;;;;;;;;;;7393623;19;20009;-71
2023/09/01 02:40:10;;;;;;;6.75;4.22;;;;;;;;;;7372043;19;20039;-72
2023/09/01 02:42:36;;;;;;;7.47;4.50;;;;;;;;;;7372279;19;20464;-71
2023/09/01 02:45:02;;;;;;;6.80;4.70;;;;;;;;;;7370426;19;20010;-71
2023/09/01 02:47:27;;;;;;;7.88;5.07;;;;;;;;;;7371922;19;20030;-71
2023/09/01 02:49:52;;;;;;;7.82;4.80;;;;;;;;;;7372182;19;20031;-72
2023/09/01 02:52:18;;;;;;;6.32;4.53;;;;;;;;;;7391319;19;20014;-71
2023/09/01 02:54:43;;;;;;;7.00;4.60;;;;;;;;;;7368022;19;20011;-71
2023/09/01 02:57:08;;;;;;;6.55;4.18;;;;;;;;;;7371236;19;20010;-71
2023/09/01 02:59:33;;;;;;;6.47;4.07;;;;;;;;;;7372348;19;20009;-71
2023/09/01 03:01:59;;;;;;;7.03;4.30;;;;;;;;;;7370734;19;20005;-71
2023/09/01 03:04:24;;;;;;;8.50;4.45;;;;;;;;;;7391284;19;19999;-71
2023/09/01 03:06:49;;;;;;;7.50;4.78;;;;;;;;;;7370128;19;20006;-71
2023/09/01 03:09:15;;;;;;;7.97;4.50;;;;;;;;;;7371981;19;20013;-71
2023/09/01 03:11:41;;;;;;;8.00;3.78;;;;;;;;;;7371066;19;20006;-73
2023/09/01 03:14:06;;;;;;;6.15;4.10;;;;;;;;;;7371226;19;20007;-71
2023/09/01 03:16:31;;;;;;;6.68;4.35;;;;;;;;;;7394719;19;20042;-71
2023/09/01 03:18:59;;;;;;;6.80;4.50;;;;;;;;;;7374347;19;20023;-71
2023/09/01 03:21:26;;;;;;;6.13;3.90;;;;;;;;;;7372708;19;20504;-72
2023/09/01 03:23:52;;;;;;;6.35;4.10;;;;;;;;;;7370781;19;20030;-72
2023/09/01 03:26:18;;;;;;;5.13;3.47;;;;;;;;;;7371111;19;20385;-72
2023/09/01 03:28:44;;;;;;;5.93;3.67;;;;;;;;;;7392463;19;20031;-73
2023/09/01 03:31:10;;;;;;;5.38;3.97;;;;;;;;;;7367462;19;20365;-72
2023/09/01 03:33:36;;;;;;;5.68;3.50;;;;;;;;;;7369781;19;20021;-72
2023/09/01 03:36:02;;;;;;;6.10;3.63;;;;;;;;;;7369016;19;20015;-72
2023/09/01 03:38:28;;;;;;;6.30;3.90;;;;;;;;;;7370798;19;20003;-70
2023/09/01 03:40:53;;;;;;;6.65;3.47;;;;;;;;;;7370720;19;19999;-71
2023/09/01 03:43:19;;;;;;;6.03;3.67;;;;;;;;;;7391293;19;20014;-71
2023/09/01 03:45:44;;;;;;;6.00;3.65;;;;;;;;;;7367820;19;20487;-71
2023/09/01 03:48:10;;;;;;;6.10;3.47;;;;;;;;;;7370001;19;20010;-71
2023/09/01 03:50:35;;;;;;;5.50;3.45;;;;;;;;;;7368701;19;20022;-71
2023/09/01 03:53:01;;;;;;;5.97;3.65;;;;;;;;;;7369661;19;20006;-73
2023/09/01 03:55:26;;;;;;;5.72;3.70;;;;;;;;;;7388928;19;20025;-72
2023/09/01 03:57:52;;;;;;;12.73;4.00;;;;;;;;;;7369394;19;20015;-71
2023/09/01 04:00:17;;;;;;;5.70;3.50;;;;;;;;;;7367683;19;20025;-72
2023/09/01 04:02:43;;;;;;;5.78;3.17;;;;;;;;;;7366932;19;20015;-71
2023/09/01 04:05:09;;;;;;;4.60;3.20;;;;;;;;;;7364471;19;20003;-71
2023/09/01 04:07:34;;;;;;;5.82;3.20;;;;;;;;;;7390625;19;20354;-72
2023/09/01 04:10:01;;;;;;;5.03;3.08;;;;;;;;;;7368964;19;20014;-72
2023/09/01 04:12:26;;;;;;;4.93;3.33;;;;;;;;;;7368463;19;20013;-72
2023/09/01 04:14:52;;;;;;;4.32;2.88;;;;;;;;;;7365267;19;20373;-73
2023/09/01 04:17:17;;;;;;;4.72;2.72;;;;;;;;;;7369178;19;20715;-73
2023/09/01 04:19:47;;;;;;;4.95;3.03;;;;;;;;;;7391365;19;20019;-71
2023/09/01 04:22:12;;;;;;;4.50;2.95;;;;;;;;;;7369344;19;20007;-72
2023/09/01 04:24:37;;;;;;;4.47;3.00;;;;;;;;;;7367145;19;20038;-71
2023/09/01 04:27:03;;;;;;;4.43;3.10;;;;;;;;;;7369329;19;20015;-72
2023/09/01 04:29:29;;;;;;;4.70;3.13;;;;;;;;;;7368690;19;20346;-72
2023/09/01 04:31:54;;;;;;;5.32;3.00;;;;;;;;;;7368873;19;20007;-72
2023/09/01 04:34:20;;;;;;;4.22;2.70;;;;;;;;;;7389576;19;20030;-71
2023/09/01 04:36:48;;;;;;;4.60;2.60;;;;;;;;;;7367197;19;20321;-73
2023/09/01 04:39:15;;;;;;;4.53;2.75;;;;;;;;;;7366171;19;20066;-72
2023/09/01 04:41:40;;;;;;;4.78;3.00;;;;;;;;;;7368549;19;20010;-72
2023/09/01 04:44:05;;;;;;;4.22;2.92;;;;;;;;;;7368212;19;20048;-73
2023/09/01 04:46:31;;;;;;;4.40;2.75;;;;;;;;;;7389232;19;20031;-73
2023/09/01 04:48:56;;;;;;;4.03;2.55;;;;;;;;;;7368177;19;20002;-71
2023/09/01 04:51:21;;;;;;;4.75;2.72;;;;;;;;;;7366739;19;20041;-72
2023/09/01 04:53:47;;;;;;;5.00;2.80;;;;;;;;;;7367072;19;20484;-72
2023/09/01 04:56:12;;;;;;;5.03;3.50;;;;;;;;;;7363829;19;20160;-72
2023/09/01 04:58:37;;;;;;;4.97;3.20;;;;;;;;;;7389387;19;20010;-72
2023/09/01 05:01:03;;;;;;;5.32;3.28;;;;;;;;;;7366423;19;20094;-71
2023/09/01 05:03:28;;;;;;;8.55;3.47;;;;;;;;;;7368365;19;20010;-71
2023/09/01 05:05:53;;;;;;;5.65;3.28;;;;;;;;;;7367376;19;20007;-71
2023/09/01 05:08:18;;;;;;;5.75;3.83;;;;;;;;;;7368363;19;20025;-72
2023/09/01 05:10:45;;;;;;;6.72;3.70;;;;;;;;;;7389407;19;20011;-72
2023/09/01 05:13:10;;;;;;;6.47;4.00;;;;;;;;;;7368371;19;20010;-72
2023/09/01 05:15:35;;;;;;;5.78;3.78;;;;;;;;;;7364207;19;20504;-73
2023/09/01 05:18:01;;;;;;;5.95;3.97;;;;;;;;;;7369002;19;20014;-72
2023/09/01 05:20:26;;;;;;;5.50;3.35;;;;;;;;;;7371134;19;20019;-72
2023/09/01 05:22:51;;;;;;;5.45;3.60;;;;;;;;;;7367276;19;20137;-71
2023/09/01 05:25:17;;;;;;;6.13;3.80;;;;;;;;;;7386683;19;20017;-72
2023/09/01 05:27:43;;;;;;;6.85;4.22;;;;;;;;;;7367163;19;20364;-72
2023/09/01 05:30:09;;;;;;;7.30;4.10;;;;;;;;;;7366719;19;20014;-72
2023/09/01 05:32:34;;;;;;;9.57;4.32;;;;;;;;;;7366351;19;20010;-72
2023/09/01 05:35:00;;;;;;;7.22;4.22;;;;;;;;;;7365320;19;20054;-72
2023/09/01 05:37:25;;;;;;;7.15;4.47;;;;;;;;;;7388167;19;19998;-73
2023/09/01 05:39:51;;;;;;;7.95;4.60;;;;;;;;;;7366601;19;20431;-72
2023/09/01 05:42:16;;;;;;;11.00;5.47;;;;;;;;;;7365664;19;20007;-72
2023/09/01 05:44:41;;;;;;;8.18;5.32;;;;;;;;;;7363816;19;20079;-73
2023/09/01 05:47:07;;;;;;;10.00;5.38;;;;;;;;;;7365116;19;20715;-73
2023/09/01 05:49:33;;;;;;;8.18;4.90;;;;;;;;;;7389451;19;20525;-73
2023/09/01 05:52:00;;;;;;;8.02;5.30;;;;;;;;;;7370841;19;20861;-72
2023/09/01 05:54:26;;;;;;;8.25;5.40;;;;;;;;;;7373076;19;20077;-73
2023/09/01 05:56:51;;;;;;;9.35;5.75;;;;;;;;;;7372772;19;20523;-73
2023/09/01 05:59:17;;;;;;;9.13;5.28;;;;;;;;;;7374099;19;20100;-72
2023/09/01 06:01:42;;;;;;;10.57;5.95;;;;;;;;;;7395087;19;20005;-72
2023/09/01 06:04:08;;;;;;;10.75;5.82;;;;;;;;;;7371868;19;20014;-72
2023/09/01 06:06:35;;;;;;;8.98;6.18;;;;;;;;;;7371945;19;20017;-72
2023/09/01 06:09:07;;;;;;;20.55;13.52;;;;;;;;;;7373629;19;20010;-73
2023/09/01 06:11:33;;;;;;;10.95;6.28;;;;;;;;;;7372685;19;20392;-73
2023/09/01 06:13:59;;;;;;;10.25;6.30;;;;;;;;;;7373202;19;20010;-73
2023/09/01 06:16:25;;;;;;;10.80;6.50;;;;;;;;;;7393867;19;20483;-73
2023/09/01 06:18:51;;;;;;;9.15;5.97;;;;;;;;;;7373395;19;20015;-73
2023/09/01 06:21:16;;;;;;;9.90;6.10;;;;;;;;;;7371365;19;20476;-73
2023/09/01 06:23:44;;;;;;;8.07;5.35;;;;;;;;;;7372421;19;20010;-74
2023/09/01 06:26:19;;;;;;;8.80;6.03;;;;;;;;;;7372494;19;20539;-74
2023/09/01 06:28:48;;;;;;;9.63;5.75;;;;;;;;;;7395375;19;20002;-73
2023/09/01 06:31:14;;;;;;;8.98;5.85;;;;;;;;;;7371488;19;20010;-73
2023/09/01 06:33:42;;;;;;;9.30;6.57;;;;;;;;;;7371629;19;20090;-72
2023/09/01 06:36:08;;;;;;;10.43;6.93;;;;;;;;;;7371188;19;20039;-73
2023/09/01 06:38:33;;;;;;;10.88;6.85;;;;;;;;;;7373246;19;20010;-74
2023/09/01 06:40:58;;;;;;;9.13;6.60;;;;;;;;;;7372695;19;20098;-73
2023/09/01 06:43:24;;;;;;;11.43;7.63;;;;;;;;;;7396305;19;20511;-73
2023/09/01 06:45:49;;;;;;;9.98;6.32;;;;;;;;;;7372217;19;20104;-73
2023/09/01 06:48:14;;;;;;;9.70;7.43;;;;;;;;;;7371429;19;20438;-73
2023/09/01 06:50:40;;;;;;;8.38;6.38;;;;;;;;;;7371345;19;20045;-74
2023/09/01 06:53:05;;;;;;;9.68;6.55;;;;;;;;;;7372145;19;20027;-73
2023/09/01 06:55:31;;;;;;;10.85;7.20;;;;;;;;;;7390244;19;20407;-73
2023/09/01 06:57:56;;;;;;;10.63;6.43;;;;;;;;;;7372033;19;20036;-73
2023/09/01 07:00:22;;;;;;;9.50;6.22;;;;;;;;;;7372481;19;20046;-73
2023/09/01 07:02:47;;;;;;;9.52;6.82;;;;;;;;;;7368054;19;20010;-73
2023/09/01 07:05:12;;;;;;;11.57;6.43;;;;;;;;;;7369832;19;20022;-73
2023/09/01 07:07:38;;;;;;;8.60;5.75;;;;;;;;;;7393376;19;20016;-72
2023/09/01 07:10:03;;;;;;;9.68;5.80;;;;;;;;;;7370988;19;20006;-72
2023/09/01 07:12:29;;;;;;;7.22;4.93;;;;;;;;;;7372423;19;20027;-73
2023/09/01 07:14:54;;;;;;;6.97;4.35;;;;;;;;;;7370722;19;20038;-73
2023/09/01 07:17:23;;;;;;;7.18;4.95;;;;;;;;;;7380320;19;20066;-73
2023/09/01 07:19:48;;;;;;;7.57;4.88;;;;;;;;;;7404709;19;20035;-75
2023/09/01 07:22:14;;;;;;;6.47;4.25;;;;;;;;;;7397595;19;20003;-73
2023/09/01 07:24:39;;;;;;;7.60;3.97;;;;;;;;;;7371577;19;20013;-74
2023/09/01 07:27:08;;;;;;;12.70;7.22;;;;;;;;;;7372122;19;20023;-73
2023/09/01 07:29:33;;;;;;;6.22;3.70;;;;;;;;;;7371625;19;20326;-73
2023/09/01 07:32:03;;;;;;;6.10;4.03;;;;;;;;;;7369427;19;20019;-74
2023/09/01 07:34:29;;;;;;;6.45;3.85;;;;;;;;;;7392316;19;20074;-74
2023/09/01 07:36:54;;;;;;;6.13;3.20;;;;;;;;;;7369642;19;20011;-73
2023/09/01 07:39:19;;;;;;;6.03;3.95;;;;;;;;;;7371613;19;20010;-73
2023/09/01 07:41:45;;;;;;;6.50;3.67;;;;;;;;;;7371391;19;20010;-74
2023/09/01 07:44:16;;;;;;;6.60;3.70;;;;;;;;;;7370266;19;20387;-73
2023/09/01 07:46:41;;;;;;;5.80;3.40;;;;;;;;;;7392149;19;19998;-73
2023/09/01 07:49:06;;;;;;;6.32;3.80;;;;;;;;;;7371072;19;20002;-73
2023/09/01 07:51:32;;;;;;;5.82;4.00;;;;;;;;;;7369369;19;20002;-73
2023/09/01 07:53:58;;;;;;;4.90;3.20;;;;;;;;;;7370372;19;20023;-73
2023/09/01 07:56:24;;;;;;;5.28;3.17;;;;;;;;;;7367926;19;20437;-73
2023/09/01 07:58:50;;;;;;;5.20;3.30;;;;;;;;;;7370602;19;20056;-73
2023/09/01 08:01:15;;;;;;;5.95;3.47;;;;;;;;;;7392370;19;20012;-74
2023/09/01 08:03:40;;;;;;;6.40;3.72;;;;;;;;;;7370523;19;20583;-73
2023/09/01 08:06:05;;;;;;;10.82;8.07;;;;;;;;;;7367984;19;20006;-73
2023/09/01 08:08:31;;;;;;;5.85;3.72;;;;;;;;;;7370269;19;20010;-73
2023/09/01 08:10:56;;;;;;;5.55;3.97;;;;;;;;;;7370114;19;20013;-73
2023/09/01 08:13:22;;;;;;;5.35;3.85;;;;;;;;;;7391655;19;20065;-73
2023/09/01 08:15:48;;;;;;;7.50;4.45;;;;;;;;;;7368621;19;20088;-73
2023/09/01 08:18:13;;;;;;;6.63;4.80;;;;;;;;;;7370010;19;20003;-73
2023/09/01 08:20:40;;;;;;;7.82;4.47;;;;;;;;;;7368776;19;20006;-73
2023/09/01 08:23:05;;;;;;;8.93;4.38;;;;;;;;;;7368762;19;20033;-73
2023/09/01 08:25:32;;;;;;;5.95;4.07;;;;;;;;;;7388959;19;20003;-73
2023/09/01 08:27:58;;;;;;;6.93;4.60;;;;;;;;;;7368264;19;20013;-73
2023/09/01 08:30:23;;;;;;;7.63;4.43;;;;;;;;;;7370102;19;20014;-73
2023/09/01 08:32:49;;;;;;;6.10;4.20;;;;;;;;;;7368387;19;20014;-73
2023/09/01 08:35:14;;;;;;;6.97;4.20;;;;;;;;;;7367951;19;20325;-73
2023/09/01 08:37:39;;;;;;;5.80;3.83;;;;;;;;;;7390738;19;20488;-73
2023/09/01 08:40:06;;;;;;;6.60;4.07;;;;;;;;;;7369132;19;20029;-74
2023/09/01 08:42:32;;;;;;;5.53;3.85;;;;;;;;;;7368886;19;20213;-73
2023/09/01 08:44:59;;;;;;;7.07;4.15;;;;;;;;;;7367704;19;20011;-74
2023/09/01 08:47:29;;;;;;;7.05;4.10;;;;;;;;;;7368195;19;20006;-73
2023/09/01 08:49:55;;;;;;;5.90;3.80;;;;;;;;;;7370842;19;20492;-73
2023/09/01 08:52:21;;;;;;;6.22;3.88;;;;;;;;;;7389457;19;20018;-73
2023/09/01 08:54:46;;;;;;;5.78;3.83;;;;;;;;;;7365876;19;20049;-74
2023/09/01 08:57:12;;;;;;;5.65;3.63;;;;;;;;;;7369497;19;20006;-72
2023/09/01 08:59:37;;;;;;;5.78;3.65;;;;;;;;;;7367826;19;20014;-73
2023/09/01 09:02:05;;;;;;;5.45;3.55;;;;;;;;;;7368145;19;19998;-72
2023/09/01 09:04:31;;;;;;;7.18;4.78;;;;;;;;;;7388853;19;20010;-72
2023/09/01 09:07:11;;;;;;;5.32;3.60;;;;;;;;;;7367043;19;20017;-73
2023/09/01 09:09:49;;;;;;;6.40;3.95;;;;;;;;;;7368741;19;20014;-72
2023/09/01 09:12:16;;;;;;;5.63;3.63;;;;;;;;;;7366724;19;20368;-73
2023/09/01 09:14:48;;;;;;;6.70;3.72;;;;;;;;;;7365233;19;20011;-73
2023/09/01 09:17:13;;;;;;;6.60;3.55;;;;;;;;;;7368104;19;20516;-73
2023/09/01 09:19:59;;;;;;;7.65;3.80;;;;;;;;;;7389617;19;20002;-73
2023/09/01 09:22:25;;;;;;;9.10;4.80;;;;;;;;;;7368593;19;20038;-73
2023/09/01 09:24:50;;;;;;;7.45;4.20;;;;;;;;;;7363694;19;20010;-73
2023/09/01 09:27:17;;;;;;;6.15;4.03;;;;;;;;;;7367259;19;20007;-73
2023/09/01 09:29:45;;;;;;;8.82;4.25;;;;;;;;;;7368023;19;20036;-73
2023/09/01 09:32:23;;;;;;;6.13;3.70;;;;;;;;;;7366968;19;20035;-73
2023/09/01 09:35:08;;;;;;;6.68;4.07;;;;;;;;;;7375495;19;20014;-73
2023/09/01 09:37:35;;;;;;;7.93;4.55;;;;;;;;;;7385625;19;20014;-73
2023/09/01 09:40:12;;;;;;;6.93;3.83;;;;;;;;;;7367445;19;20016;-73
2023/09/01 09:42:39;;;;;;;7.28;4.60;;;;;;;;;;7367613;19;20014;-72
2023/09/01 09:45:20;;;;;;;6.45;4.63;;;;;;;;;;7366589;19;20002;-73
2023/09/01 09:47:46;;;;;;;7.55;4.82;;;;;;;;;;7367438;19;20433;-72
2023/09/01 09:50:11;;;;;;;7.82;4.95;;;;;;;;;;7368088;19;20017;-71
2023/09/01 09:52:37;;;;;;;8.82;4.97;;;;;;;;;;7388341;19;20712;-73
2023/09/01 09:55:08;;;;;;;8.18;5.15;;;;;;;;;;7365081;19;20002;-73
2023/09/01 09:57:34;;;;;;;7.60;4.70;;;;;;;;;;7367217;19;20034;-73
2023/09/01 10:00:08;;;;;;;8.88;4.78;;;;;;;;;;7367919;19;20002;-73
2023/09/01 10:02:42;;;;;;;8.63;5.20;;;;;;;;;;7365722;19;20010;-72
2023/09/01 10:05:11;;;;;;;19.00;10.10;;;;;;;;;;7363827;19;20373;-72
2023/09/01 10:07:36;;;;;;;8.60;5.32;;;;;;;;;;7389560;19;20006;-73
2023/09/01 10:10:02;;;;;;;8.38;5.63;;;;;;;;;;7366921;19;20060;-73
2023/09/01 10:12:28;;;;;;;8.43;5.10;;;;;;;;;;7368837;19;20477;-74
2023/09/01 10:14:55;;;;;;;9.75;5.30;;;;;;;;;;7366043;19;20003;-73
2023/09/01 10:17:22;;;;;;;9.43;5.63;;;;;;;;;;7368208;19;20445;-73
2023/09/01 10:19:48;;;;;;;8.68;5.72;;;;;;;;;;7388839;19;20440;-72
2023/09/01 10:22:17;;;;;;;8.38;5.50;;;;;;;;;;7367036;19;20027;-72
2023/09/01 10:25:10;;;;;;;6.82;5.13;;;;;;;;;;7363925;19;20003;-73
2023/09/01 10:27:36;;;;;;;8.45;5.13;;;;;;;;;;7366666;19;20386;-72
2023/09/01 10:30:25;;;;;;;7.85;5.45;;;;;;;;;;7367207;19;19999;-71
2023/09/01 10:33:01;;;;;;;7.97;5.43;;;;;;;;;;7365768;19;20011;-73
2023/09/01 10:35:43;;;;;;;8.10;5.10;;;;;;;;;;7363844;19;20107;-72
2023/09/01 10:38:10;;;;;;;7.70;5.15;;;;;;;;;;7371424;19;20041;-73
2023/09/01 10:40:52;;;;;;;9.10;5.88;;;;;;;;;;7396180;19;20006;-71
2023/09/01 10:43:33;;;;;;;8.13;5.40;;;;;;;;;;7373655;19;20427;-73
2023/09/01 10:46:16;;;;;;;7.55;5.32;;;;;;;;;;7371754;19;20365;-71
2023/09/01 10:48:52;;;;;;;7.85;5.30;;;;;;;;;;7371886;19;20491;-72
2023/09/01 10:51:18;;;;;;;8.27;5.60;;;;;;;;;;7371438;19;20700;-72
2023/09/01 10:53:45;;;;;;;8.45;5.53;;;;;;;;;;7370999;19;20375;-72
2023/09/01 10:56:12;;;;;;;9.38;6.80;;;;;;;;;;7371334;19;20013;-73
2023/09/01 10:58:39;;;;;;;12.60;7.20;;;;;;;;;;7393692;19;20007;-71
2023/09/01 11:01:27;;;;;;;10.57;6.30;;;;;;;;;;7371485;19;20014;-72
2023/09/01 11:03:53;;;;;;;8.57;5.68;;;;;;;;;;7369730;19;20100;-73
2023/09/01 11:06:18;;;;;;;9.23;6.13;;;;;;;;;;7371407;19;20002;-74
2023/09/01 11:09:00;;;;;;;6.70;4.00;;;;;;;;;;7371857;19;20046;-72
2023/09/01 11:11:26;;;;;;;5.30;3.80;;;;;;;;;;7372855;19;20094;-72
2023/09/01 11:13:58;;;;;;;7.57;3.80;;;;;;;;;;7382277;19;20006;-72
2023/09/01 11:16:24;;;;;;;5.40;3.63;;;;;;;;;;7405442;19;20018;-72
2023/09/01 11:19:00;;;;;;;8.65;3.40;;;;;;;;;;7380034;19;20381;-73
2023/09/01 11:21:26;;;;;;;6.63;3.25;;;;;;;;;;7371450;19;20025;-73
2023/09/01 11:23:59;;;;;;;5.18;2.90;;;;;;;;;;7371137;19;20030;-73
2023/09/01 11:26:25;;;;;;;4.47;2.92;;;;;;;;;;7370087;19;20334;-73
2023/09/01 11:28:50;;;;;;;6.03;3.17;;;;;;;;;;7370168;19;20013;-73
2023/09/01 11:31:16;;;;;;;5.05;3.22;;;;;;;;;;7391378;19;20109;-73
2023/09/01 11:33:50;;;;;;;5.20;3.05;;;;;;;;;;7368835;19;20058;-73
2023/09/01 11:36:15;;;;;;;4.30;3.00;;;;;;;;;;7369039;19;20086;-73
2023/09/01 11:38:43;;;;;;;4.00;2.55;;;;;;;;;;7370368;19;20010;-74
2023/09/01 11:41:12;;;;;;;4.45;2.47;;;;;;;;;;7370226;19;20695;-73
2023/09/01 11:43:38;;;;;;;4.40;2.70;;;;;;;;;;7390840;19;20293;-73
2023/09/01 11:46:04;;;;;;;5.43;2.60;;;;;;;;;;7368275;19;20002;-73
2023/09/01 11:48:29;;;;;;;4.50;2.45;;;;;;;;;;7369001;19;20023;-73
2023/09/01 11:50:57;;;;;;;4.30;2.20;;;;;;;;;;7369412;19;20012;-71
2023/09/01 11:53:30;;;;;;;1.50;1.40;;;;;;;;;;7370073;19;20539;-73
2023/09/01 11:56:01;;;;;;;2.85;1.55;;;;;;;;;;7368872;19;20006;-73
2023/09/01 11:58:46;;;;;;;;;;;;;;;;;;7393296;19;20007;-73
2023/09/01 12:01:14;;;;;;;1.58;1.40;;;;;;;;;;7369226;19;20173;-74
2023/09/01 12:03:53;;;;;;;2.60;1.40;;;;;;;;;;7369149;19;20003;-73
2023/09/01 12:06:20;;;;;;;8.75;5.57;;;;;;;;;;7369754;19;20059;-76
2023/09/01 12:08:46;;;;;;;1.95;1.38;;;;;;;;;;7370982;19;20119;-73
2023/09/01 12:11:16;;;;;;;2.13;1.20;;;;;;;;;;7370530;19;20010;-72
2023/09/01 12:13:45;;;;;;;1.80;1.30;;;;;;;;;;7391762;19;20725;-74
2023/09/01 12:16:24;;;;;;;2.88;1.10;;;;;;;;;;7369250;19;20013;-73
2023/09/01 12:18:51;;;;;;;1.77;1.23;;;;;;;;;;7369611;19;20110;-73
2023/09/01 12:21:16;;;;;;;1.80;1.08;;;;;;;;;;7370570;19;20066;-73
2023/09/01 12:23:45;;;;;;;1.55;1.30;;;;;;;;;;7369685;19;20463;-72
2023/09/01 12:26:15;;;;;;;1.98;1.30;;;;;;;;;;7368153;19;20002;-73
2023/09/01 12:28:42;;;;;;;2.55;1.30;;;;;;;;;;7391373;19;20003;-73
2023/09/01 12:31:09;;;;;;;2.28;1.33;;;;;;;;;;7367829;19;20651;-74
2023/09/01 12:33:37;;;;;;;2.33;1.50;;;;;;;;;;7368086;19;20006;-73
2023/09/01 12:36:03;;;;;;;2.63;1.60;;;;;;;;;;7367416;19;20038;-72
2023/09/01 12:38:29;;;;;;;2.50;1.70;;;;;;;;;;7368681;19;20006;-73
2023/09/01 12:40:55;;;;;;;3.22;1.55;;;;;;;;;;7368783;19;19994;-73
2023/09/01 12:43:20;;;;;;;2.88;1.67;;;;;;;;;;7390799;19;19999;-72
2023/09/01 12:45:45;;;;;;;2.28;1.70;;;;;;;;;;7365917;19;20006;-72
2023/09/01 12:48:14;;;;;;;3.17;1.70;;;;;;;;;;7368760;19;20089;-73
2023/09/01 12:50:43;;;;;;;2.28;1.60;;;;;;;;;;7368591;19;20014;-72
2023/09/01 12:53:09;;;;;;;3.60;2.03;;;;;;;;;;7369054;19;20051;-72
2023/09/01 12:55:35;;;;;;;2.38;1.83;;;;;;;;;;7386914;19;20366;-72
2023/09/01 12:58:00;;;;;;;4.20;1.67;;;;;;;;;;7367552;19;20003;-71
2023/09/01 13:00:26;;;;;;;1.48;1.30;;;;;;;;;;7365560;19;20023;-73
2023/09/01 13:02:52;;;;;;;3.03;1.45;;;;;;;;;;7367251;19;20034;-72
2023/09/01 13:05:18;;;;;;;1.20;1.10;;;;;;;;;;7366055;19;20007;-73
2023/09/01 13:07:47;;;;;;;1.90;1.27;;;;;;;;;;7389462;19;20554;-71
2023/09/01 13:10:12;;;;;;;2.28;1.50;;;;;;;;;;7367027;19;20102;-71
2023/09/01 13:12:38;;;;;;;2.33;1.58;;;;;;;;;;7366760;19;20031;-72
2023/09/01 13:15:04;;;;;;;4.15;1.50;;;;;;;;;;7365869;19;20002;-72
2023/09/01 13:17:29;;;;;;;2.38;1.40;;;;;;;;;;7367200;19;20016;-72
2023/09/01 13:19:54;;;;;;;2.42;1.42;;;;;;;;;;7367590;19;20488;-71
2023/09/01 13:22:20;;;;;;;2.03;1.35;;;;;;;;;;7388415;19;20003;-72
2023/09/01 13:24:45;;;;;;;1.75;1.30;;;;;;;;;;7363773;19;20018;-72
2023/09/01 13:27:10;;;;;;;2.58;1.45;;;;;;;;;;7366667;19;20027;-73
2023/09/01 13:29:36;;;;;;;4.97;1.50;;;;;;;;;;7367855;19;20011;-71
2023/09/01 13:32:01;;;;;;;3.10;1.60;;;;;;;;;;7365553;19;20002;-72
2023/09/01 13:34:26;;;;;;;3.08;1.38;;;;;;;;;;7388327;19;20010;-71
2023/09/01 13:36:52;;;;;;;1.80;1.42;;;;;;;;;;7364757;19;20026;-73
2023/09/01 13:39:17;;;;;;;1.70;1.27;;;;;;;;;;7366052;19;20021;-73
2023/09/01 13:41:42;;;;;;;2.63;1.60;;;;;;;;;;7366952;19;20017;-72
2023/09/01 13:44:08;;;;;;;5.53;2.40;;;;;;;;;;7366642;19;20012;-73
2023/09/01 13:46:33;;;;;;;3.70;2.17;;;;;;;;;;7386801;19;20006;-72
2023/09/01 13:48:59;;;;;;;2.22;1.40;;;;;;;;;;7366474;19;20014;-72
2023/09/01 13:51:26;;;;;;;2.28;1.40;;;;;;;;;;7365672;19;20031;-72
2023/09/01 13:53:53;;;;;;;4.95;1.55;;;;;;;;;;7366913;19;20129;-72
2023/09/01 13:56:19;;;;;;;5.90;1.58;;;;;;;;;;7366438;19;20011;-73
2023/09/01 13:58:44;;;;;;;2.85;1.58;;;;;;;;;;7387830;19;20096;-73
2023/09/01 14:01:09;;;;;;;3.45;1.27;;;;;;;;;;7365534;19;20014;-72
2023/09/01 14:03:35;;;;;;;1.88;1.40;;;;;;;;;;7366143;19;20700;-71
2023/09/01 14:06:01;;;;;;;1.60;1.20;;;;;;;;;;7364958;19;20072;-72
2023/09/01 14:08:29;;;;;;;2.20;1.50;;;;;;;;;;7365653;19;20489;-71
2023/09/01 14:10:56;;;;;;;1.92;1.35;;;;;;;;;;7366096;19;19999;-71
2023/09/01 14:13:22;;;;;;;3.53;1.52;;;;;;;;;;7394816;19;20013;-73
2023/09/01 14:15:48;;;;;;;2.35;1.30;;;;;;;;;;7371313;19;20683;-73
2023/09/01 14:18:13;;;;;;;2.50;1.33;;;;;;;;;;7372505;19;20441;-72
2023/09/01 14:20:39;;;;;;;1.23;1.10;;;;;;;;;;7372392;19;20018;-72
2023/09/01 14:23:04;;;;;;;1.80;1.30;;;;;;;;;;7373208;19;20513;-72
2023/09/01 14:25:29;;;;;;;1.92;1.13;;;;;;;;;;7390532;19;20465;-72
2023/09/01 14:27:55;;;;;;;1.92;1.52;;;;;;;;;;7371325;19;20102;-71
2023/09/01 14:30:20;;;;;;;3.15;1.35;;;;;;;;;;7371580;19;20013;-71
2023/09/01 14:32:45;;;;;;;1.42;1.10;;;;;;;;;;7370942;19;20010;-72
2023/09/01 14:35:11;;;;;;;2.03;1.25;;;;;;;;;;7369279;19;20014;-72
2023/09/01 14:37:36;;;;;;;2.17;1.00;;;;;;;;;;7394632;19;20006;-73
2023/09/01 14:40:02;;;;;;;1.08;0.98;;;;;;;;;;7372155;19;19998;-71
2023/09/01 14:42:28;;;;;;;1.10;1.00;;;;;;;;;;7372232;19;20018;-72